Time;durP1;ratioP1;P1;durP2;ratioP2;P2;SDS_P1;SDS_P2;PMS_P1;PMS_P2;Temp;Humidity;BMP_temperature;BMP_pressure;BME280_temperature;BME280_humidity;BME280_pressure;Samples;Min_cycle;Max_cycle;Signal;HPM_P1;HPM_P2
2021/10/10 00:01:00;;;;;;;18.83;8.88;;;7.60;99.90;;;;;;5096332;28;20012;-59
2021/10/10 00:03:25;;;;;;;17.42;8.52;;;7.60;99.90;;;;;;5072041;28;20048;-60
2021/10/10 00:05:51;;;;;;;13.27;8.02;;;7.50;99.90;;;;;;5095810;28;20091;-56
2021/10/10 00:08:17;;;;;;;16.35;8.05;;;7.50;99.90;;;;;;5099509;28;20047;-58
2021/10/10 00:10:43;;;;;;;16.35;8.60;;;7.50;99.90;;;;;;5090218;28;20042;-58
2021/10/10 00:13:08;;;;;;;15.20;8.65;;;7.50;99.90;;;;;;5087913;28;20063;-57
2021/10/10 00:15:34;;;;;;;12.82;7.82;;;7.40;99.90;;;;;;5091009;28;20484;-57
2021/10/10 00:17:59;;;;;;;19.50;9.38;;;7.30;99.90;;;;;;5097895;28;20074;-60
2021/10/10 00:20:25;;;;;;;13.80;8.48;;;7.30;99.90;;;;;;5092854;28;20012;-59
2021/10/10 00:22:50;;;;;;;13.88;8.18;;;7.20;99.90;;;;;;5092266;28;20504;-59
2021/10/10 00:25:16;;;;;;;16.08;9.57;;;7.20;99.90;;;;;;5092746;28;20131;-59
2021/10/10 00:27:42;;;;;;;22.77;9.50;;;7.20;99.90;;;;;;5094363;28;20030;-59
2021/10/10 00:30:09;;;;;;;17.77;8.95;;;7.10;99.90;;;;;;5090642;28;20495;-58
2021/10/10 00:32:35;;;;;;;18.67;9.70;;;7.20;99.90;;;;;;5090216;28;20627;-58
2021/10/10 00:35:00;;;;;;;20.35;9.80;;;7.20;99.90;;;;;;5088052;28;20028;-56
2021/10/10 00:37:26;;;;;;;15.73;9.02;;;7.10;99.90;;;;;;5095700;28;20073;-59
2021/10/10 00:39:52;;;;;;;17.60;9.60;;;7.10;99.90;;;;;;5102368;28;20126;-58
2021/10/10 00:42:18;;;;;;;17.58;8.73;;;7.10;99.90;;;;;;5099060;28;20064;-59
2021/10/10 00:44:48;;;;;;;21.30;9.70;;;7.10;99.90;;;;;;5101666;28;20079;-59
2021/10/10 00:47:14;;;;;;;20.17;10.25;;;7.10;99.90;;;;;;5096073;28;20035;-58
2021/10/10 00:49:40;;;;;;;16.45;8.93;;;7.10;99.90;;;;;;5097811;28;20032;-58
2021/10/10 00:52:10;;;;;;;18.13;8.32;;;7.10;99.90;;;;;;5098251;28;20024;-58
2021/10/10 00:54:36;;;;;;;19.60;9.00;;;7.10;99.90;;;;;;5101076;28;20023;-59
2021/10/10 00:57:04;;;;;;;17.20;9.27;;;7.00;99.90;;;;;;5102127;28;20080;-59
2021/10/10 00:59:33;;;;;;;17.00;10.40;;;6.90;99.90;;;;;;5097326;28;20079;-59
2021/10/10 01:01:59;;;;;;;12.38;8.25;;;6.80;99.90;;;;;;5101414;28;20567;-59
2021/10/10 01:04:24;;;;;;;16.90;9.05;;;6.70;99.90;;;;;;5084266;28;20078;-59
2021/10/10 01:06:50;;;;;;;18.75;9.50;;;6.70;99.90;;;;;;5100923;28;20028;-58
2021/10/10 01:09:16;;;;;;;15.93;8.68;;;6.60;99.90;;;;;;5092852;28;20100;-59
2021/10/10 01:11:42;;;;;;;22.08;9.88;;;6.50;99.90;;;;;;5099105;28;20492;-58
2021/10/10 01:14:10;;;;;;;14.05;8.25;;;6.30;99.90;;;;;;5096401;28;20026;-59
2021/10/10 01:16:35;;;;;;;26.20;9.25;;;6.20;99.90;;;;;;5099768;28;20047;-59
2021/10/10 01:19:01;;;;;;;21.80;9.60;;;6.20;99.90;;;;;;5100572;28;20093;-59
2021/10/10 01:21:27;;;;;;;21.70;9.52;;;6.10;99.90;;;;;;5106142;28;20031;-59
2021/10/10 01:23:52;;;;;;;14.75;9.18;;;6.10;99.90;;;;;;5107401;28;20057;-56
2021/10/10 01:26:19;;;;;;;12.80;8.68;;;6.10;99.90;;;;;;5107728;28;20039;-59
2021/10/10 01:28:47;;;;;;;22.95;10.15;;;6.10;99.90;;;;;;5107250;28;20024;-58
2021/10/10 01:31:13;;;;;;;15.73;8.52;;;6.10;99.90;;;;;;5104537;28;20500;-59
2021/10/10 01:33:39;;;;;;;22.00;10.60;;;6.10;99.90;;;;;;5107078;28;20155;-59
2021/10/10 01:36:10;;;;;;;17.50;8.57;;;6.10;99.90;;;;;;5107441;28;20036;-59
2021/10/10 01:38:36;;;;;;;16.27;10.32;;;6.10;99.90;;;;;;5107786;28;20015;-59
2021/10/10 01:41:01;;;;;;;15.60;8.98;;;6.10;99.90;;;;;;5106391;28;20097;-60
2021/10/10 01:43:27;;;;;;;19.65;9.77;;;6.00;99.90;;;;;;5106275;28;20024;-58
2021/10/10 01:45:52;;;;;;;16.42;9.27;;;6.00;99.90;;;;;;5108739;28;20024;-54
2021/10/10 01:48:18;;;;;;;16.63;9.52;;;5.90;99.90;;;;;;5107598;28;20032;-58
2021/10/10 01:50:44;;;;;;;22.40;10.50;;;5.90;99.90;;;;;;5100203;28;20032;-60
2021/10/10 01:53:09;;;;;;;19.67;9.18;;;5.90;99.90;;;;;;5106964;28;20024;-58
2021/10/10 01:55:35;;;;;;;19.45;9.52;;;5.90;99.90;;;;;;5107977;28;20058;-57
2021/10/10 01:58:00;;;;;;;15.90;9.55;;;5.90;99.90;;;;;;5111490;28;20024;-59
2021/10/10 02:00:26;;;;;;;16.70;9.18;;;5.80;99.90;;;;;;5109414;28;20070;-59
2021/10/10 02:02:52;;;;;;;18.13;9.30;;;5.80;99.90;;;;;;5091836;28;20463;-58
2021/10/10 02:05:17;;;;;;;20.80;10.20;;;5.80;99.90;;;;;;5112225;28;20073;-59
2021/10/10 02:07:43;;;;;;;20.25;9.90;;;5.70;99.90;;;;;;5111900;28;20473;-59
2021/10/10 02:10:11;;;;;;;19.88;9.80;;;5.70;99.90;;;;;;5111151;28;20114;-59
2021/10/10 02:12:37;;;;;;;21.30;9.75;;;5.70;99.90;;;;;;5112022;28;20076;-58
2021/10/10 02:15:05;;;;;;;21.45;10.32;;;5.70;99.90;;;;;;5112567;28;20058;-58
2021/10/10 02:17:31;;;;;;;21.58;10.15;;;5.60;99.90;;;;;;5107467;28;20028;-59
2021/10/10 02:19:56;;;;;;;19.38;10.23;;;5.50;99.90;;;;;;5111671;28;20028;-59
2021/10/10 02:22:22;;;;;;;18.73;10.23;;;5.50;99.90;;;;;;5106058;28;20107;-58
2021/10/10 02:24:48;;;;;;;17.52;10.32;;;5.40;99.90;;;;;;5111004;28;20039;-59
2021/10/10 02:27:13;;;;;;;20.63;12.25;;;5.40;99.90;;;;;;5110776;28;20032;-58
2021/10/10 02:29:39;;;;;;;17.63;11.20;;;5.30;99.90;;;;;;5108422;28;20024;-59
2021/10/10 02:32:05;;;;;;;23.13;10.52;;;5.30;99.90;;;;;;5108314;28;20055;-59
2021/10/10 02:34:30;;;;;;;22.27;11.48;;;5.30;99.90;;;;;;5109464;28;20050;-57
2021/10/10 02:36:56;;;;;;;19.33;10.13;;;5.30;99.90;;;;;;5110061;28;20102;-58
2021/10/10 02:39:22;;;;;;;19.63;10.48;;;5.30;99.90;;;;;;5110978;28;20039;-59
2021/10/10 02:41:47;;;;;;;19.30;9.73;;;5.30;99.90;;;;;;5107924;28;20031;-58
2021/10/10 02:44:13;;;;;;;18.23;10.13;;;5.40;99.90;;;;;;5109850;28;20544;-59
2021/10/10 02:46:38;;;;;;;17.45;10.35;;;5.40;99.90;;;;;;5111031;28;20051;-58
2021/10/10 02:49:04;;;;;;;17.27;10.52;;;5.40;99.90;;;;;;5107029;28;20081;-58
2021/10/10 02:51:30;;;;;;;18.13;10.20;;;5.30;99.90;;;;;;5111604;28;20024;-59
2021/10/10 02:53:57;;;;;;;18.23;10.45;;;5.30;99.90;;;;;;5110402;28;20043;-58
2021/10/10 02:56:22;;;;;;;17.00;9.68;;;5.20;99.90;;;;;;5111873;28;20031;-57
2021/10/10 02:58:48;;;;;;;24.33;12.57;;;5.10;99.90;;;;;;5109307;28;20019;-58
2021/10/10 03:01:14;;;;;;;21.95;10.65;;;5.00;99.90;;;;;;5107992;28;20055;-59
2021/10/10 03:03:39;;;;;;;22.55;11.10;;;5.00;99.90;;;;;;5083505;28;20397;-59
2021/10/10 03:06:07;;;;;;;23.60;11.02;;;5.00;99.90;;;;;;5109736;28;20027;-59
2021/10/10 03:08:33;;;;;;;24.75;11.43;;;4.90;99.90;;;;;;5108530;28;20034;-58
2021/10/10 03:10:59;;;;;;;21.88;10.70;;;4.90;99.90;;;;;;5110322;28;20027;-59
2021/10/10 03:13:24;;;;;;;20.02;10.20;;;5.00;99.90;;;;;;5109665;28;20089;-59
2021/10/10 03:15:50;;;;;;;19.42;10.68;;;5.10;99.90;;;;;;5102713;28;20388;-57
2021/10/10 03:18:16;;;;;;;16.15;10.65;;;5.10;99.90;;;;;;5109833;28;20014;-56
2021/10/10 03:20:41;;;;;;;20.75;11.00;;;5.20;99.90;;;;;;5110168;28;20446;-55
2021/10/10 03:23:07;;;;;;;16.70;9.65;;;5.20;99.90;;;;;;5090294;28;20107;-55
2021/10/10 03:25:33;;;;;;;21.55;10.07;;;5.20;99.90;;;;;;5111055;28;20039;-58
2021/10/10 03:27:58;;;;;;;19.90;11.10;;;5.20;99.90;;;;;;5110562;28;20027;-59
2021/10/10 03:30:24;;;;;;;30.25;11.93;;;5.10;99.90;;;;;;5110905;28;20381;-57
2021/10/10 03:32:49;;;;;;;20.48;11.75;;;5.00;99.90;;;;;;5109424;28;20027;-58
2021/10/10 03:35:15;;;;;;;17.73;10.70;;;5.00;99.90;;;;;;5107423;28;20393;-59
2021/10/10 03:37:40;;;;;;;18.15;11.02;;;5.10;99.90;;;;;;5109284;28;20048;-60
2021/10/10 03:40:09;;;;;;;19.83;12.02;;;5.10;99.90;;;;;;5106447;28;20024;-59
2021/10/10 03:42:35;;;;;;;21.30;11.25;;;5.10;99.90;;;;;;5101414;28;20043;-59
2021/10/10 03:45:01;;;;;;;18.95;10.10;;;5.10;99.90;;;;;;5106179;28;20032;-60
2021/10/10 03:47:26;;;;;;;21.55;11.23;;;5.10;99.90;;;;;;5105794;28;20027;-58
2021/10/10 03:49:52;;;;;;;20.60;11.80;;;5.10;99.90;;;;;;5101006;28;20634;-59
2021/10/10 03:52:18;;;;;;;22.17;11.65;;;5.00;99.90;;;;;;5099828;27;20031;-58
2021/10/10 03:57:27;;;;;;;22.10;11.93;;;5.00;99.90;;;;;;5108796;28;20035;-58
2021/10/10 04:00:02;;;;;;;22.63;11.30;;;4.90;99.90;;;;;;5106184;28;20408;-54
2021/10/10 04:02:28;;;;;;;22.33;11.27;;;4.80;99.90;;;;;;5108877;28;20020;-58
2021/10/10 04:04:54;;;;;;;24.35;11.77;;;4.70;99.90;;;;;;5090135;28;20058;-59
2021/10/10 04:07:20;;;;;;;25.20;12.63;;;4.70;99.90;;;;;;5103890;28;20031;-59
2021/10/10 04:09:46;;;;;;;28.35;13.52;;;4.60;99.90;;;;;;5107215;28;20023;-58
2021/10/10 04:12:12;;;;;;;23.83;12.38;;;4.60;99.90;;;;;;5109182;28;20061;-59
2021/10/10 04:14:38;;;;;;;27.25;12.85;;;4.60;99.90;;;;;;5108914;28;20023;-59
2021/10/10 04:17:04;;;;;;;23.45;12.90;;;4.60;99.90;;;;;;5105695;28;20015;-58
2021/10/10 04:19:31;;;;;;;30.42;13.20;;;4.60;99.90;;;;;;5109169;28;20040;-59
2021/10/10 04:21:57;;;;;;;19.25;11.95;;;4.60;99.90;;;;;;5104343;28;20408;-59
2021/10/10 04:24:23;;;;;;;24.73;12.07;;;4.50;99.90;;;;;;5102267;28;20068;-57
2021/10/10 04:26:48;;;;;;;24.40;13.07;;;4.50;99.90;;;;;;5106868;28;20020;-57
2021/10/10 04:29:14;;;;;;;22.75;12.38;;;4.50;99.90;;;;;;5104945;28;20026;-58
2021/10/10 04:31:39;;;;;;;21.15;11.90;;;4.50;99.90;;;;;;5103649;28;20020;-56
2021/10/10 04:34:05;;;;;;;19.50;10.88;;;4.50;99.90;;;;;;5106530;28;20039;-58
2021/10/10 04:36:30;;;;;;;18.23;11.82;;;4.40;99.90;;;;;;5108344;28;20486;-58
2021/10/10 04:38:56;;;;;;;19.42;12.18;;;4.40;99.90;;;;;;5107085;28;20035;-57
2021/10/10 04:41:22;;;;;;;23.27;11.75;;;4.30;99.90;;;;;;5099555;28;20396;-58
2021/10/10 04:43:47;;;;;;;20.33;12.02;;;4.20;99.90;;;;;;5105160;28;20464;-59
2021/10/10 04:46:13;;;;;;;27.83;14.55;;;4.20;99.90;;;;;;5109199;28;20024;-59
2021/10/10 04:48:38;;;;;;;27.23;14.15;;;4.20;99.90;;;;;;5107281;28;20475;-57
2021/10/10 04:51:05;;;;;;;25.35;14.25;;;4.20;99.90;;;;;;5108532;28;20074;-57
2021/10/10 04:53:30;;;;;;;24.05;14.02;;;4.30;99.90;;;;;;5102475;28;20024;-59
2021/10/10 04:55:56;;;;;;;31.38;14.60;;;4.30;99.90;;;;;;5102155;28;20156;-54
2021/10/10 04:58:22;;;;;;;28.85;14.80;;;4.40;99.90;;;;;;5101797;28;20050;-58
2021/10/10 05:00:47;;;;;;;25.15;14.50;;;4.40;99.90;;;;;;5100116;28;20464;-59
2021/10/10 05:03:13;;;;;;;24.38;15.20;;;4.30;99.90;;;;;;5089836;28;20058;-59
2021/10/10 05:05:41;;;;;;;27.50;14.82;;;4.30;99.90;;;;;;5106589;28;20108;-60
2021/10/10 05:08:08;;;;;;;26.65;15.23;;;4.30;99.90;;;;;;5104678;28;20047;-59
2021/10/10 05:10:34;;;;;;;24.00;14.52;;;4.30;99.90;;;;;;5103840;28;20032;-58
2021/10/10 05:12:59;;;;;;;25.38;14.02;;;4.30;99.90;;;;;;5106872;28;20031;-58
2021/10/10 05:15:25;;;;;;;28.95;15.32;;;4.30;99.90;;;;;;5105824;28;20062;-59
2021/10/10 05:17:50;;;;;;;29.50;14.73;;;4.30;99.90;;;;;;5098082;28;20107;-59
2021/10/10 05:20:16;;;;;;;25.13;15.30;;;4.20;99.90;;;;;;5093210;28;20047;-59
2021/10/10 05:22:41;;;;;;;29.33;14.25;;;4.10;99.90;;;;;;5104092;28;20032;-58
2021/10/10 05:25:07;;;;;;;31.92;14.48;;;4.10;99.90;;;;;;5101238;28;20051;-59
2021/10/10 05:27:33;;;;;;;27.30;15.15;;;4.10;99.90;;;;;;5099975;28;20106;-59
2021/10/10 05:29:58;;;;;;;27.80;14.13;;;4.10;99.90;;;;;;5108756;28;20039;-59
2021/10/10 05:32:24;;;;;;;26.10;15.68;;;4.00;99.90;;;;;;5111940;28;20080;-59
2021/10/10 05:34:49;;;;;;;26.00;14.57;;;4.10;99.90;;;;;;5113173;28;20027;-59
2021/10/10 05:37:15;;;;;;;26.02;14.88;;;4.00;99.90;;;;;;5106286;28;20036;-58
2021/10/10 05:39:41;;;;;;;28.80;13.85;;;4.00;99.90;;;;;;5102476;28;20035;-59
2021/10/10 05:42:06;;;;;;;27.42;14.32;;;4.00;99.90;;;;;;5106583;28;20126;-58
2021/10/10 05:44:32;;;;;;;26.58;13.98;;;4.00;99.90;;;;;;5108180;28;20445;-59
2021/10/10 05:46:57;;;;;;;25.90;14.27;;;4.00;99.90;;;;;;5103497;28;20562;-59
2021/10/10 05:49:23;;;;;;;24.90;14.10;;;4.00;99.90;;;;;;5111325;28;20031;-57
2021/10/10 05:51:50;;;;;;;30.38;14.27;;;4.00;99.90;;;;;;5108850;28;20023;-59
2021/10/10 05:54:16;;;;;;;25.88;14.25;;;4.00;99.90;;;;;;5110351;27;20492;-59
2021/10/10 05:56:42;;;;;;;29.65;14.98;;;4.00;99.90;;;;;;5111914;28;20023;-57
2021/10/10 05:59:10;;;;;;;26.80;14.27;;;4.00;99.90;;;;;;5104449;28;20138;-57
2021/10/10 06:01:36;;;;;;;27.25;14.38;;;4.10;99.90;;;;;;5112630;28;20476;-59
2021/10/10 06:04:05;;;;;;;26.90;14.38;;;4.20;99.90;;;;;;5094169;28;20052;-57
2021/10/10 06:06:30;;;;;;;23.23;13.73;;;4.20;99.90;;;;;;5110612;28;20039;-56
2021/10/10 06:08:56;;;;;;;23.70;14.13;;;4.30;99.90;;;;;;5111213;28;20038;-59
2021/10/10 06:11:22;;;;;;;28.17;12.75;;;4.40;99.90;;;;;;5112779;27;20067;-57
2021/10/10 06:13:48;;;;;;;23.02;12.68;;;4.50;99.90;;;;;;5102940;28;20045;-59
2021/10/10 06:16:14;;;;;;;23.55;12.43;;;4.60;99.90;;;;;;5110140;28;20089;-59
2021/10/10 06:18:40;;;;;;;19.98;11.82;;;4.60;99.90;;;;;;5107786;28;20377;-58
2021/10/10 06:21:06;;;;;;;19.38;11.88;;;4.60;99.90;;;;;;5110734;28;20546;-59
2021/10/10 06:23:31;;;;;;;25.80;12.40;;;4.60;99.90;;;;;;5108698;28;20035;-59
2021/10/10 06:25:57;;;;;;;22.65;12.80;;;4.70;99.90;;;;;;5106530;28;20080;-54
2021/10/10 06:28:22;;;;;;;21.27;12.55;;;4.70;99.90;;;;;;5107870;28;20070;-59
2021/10/10 06:30:49;;;;;;;22.95;11.65;;;4.70;99.90;;;;;;5106773;28;20035;-59
2021/10/10 06:33:14;;;;;;;20.98;12.30;;;4.80;99.90;;;;;;5103996;28;20024;-60
2021/10/10 06:35:40;;;;;;;31.58;11.63;;;4.90;99.90;;;;;;5101751;28;20031;-59
2021/10/10 06:38:05;;;;;;;28.48;13.27;;;4.90;99.90;;;;;;5103276;28;20069;-59
2021/10/10 06:40:31;;;;;;;21.30;11.05;;;5.10;99.90;;;;;;5103506;28;20067;-59
2021/10/10 06:42:57;;;;;;;26.33;11.93;;;5.20;99.90;;;;;;5102557;28;20037;-58
2021/10/10 06:45:22;;;;;;;22.23;11.82;;;5.30;99.90;;;;;;5111140;28;20524;-59
2021/10/10 06:47:48;;;;;;;20.20;12.20;;;5.40;99.90;;;;;;5106168;28;20042;-59
2021/10/10 06:50:13;;;;;;;19.98;11.93;;;5.50;99.90;;;;;;5110848;28;20068;-59
2021/10/10 06:52:39;;;;;;;24.23;10.52;;;5.60;99.90;;;;;;5107266;28;20040;-59
2021/10/10 06:55:05;;;;;;;22.13;11.52;;;5.70;99.90;;;;;;5107755;28;20081;-60
2021/10/10 06:57:32;;;;;;;21.73;11.73;;;5.90;99.90;;;;;;5108663;28;20031;-58
2021/10/10 06:59:58;;;;;;;17.20;10.18;;;6.00;99.90;;;;;;5111221;28;20077;-59
2021/10/10 07:02:25;;;;;;;17.73;11.18;;;6.20;99.90;;;;;;5103603;28;20468;-59
2021/10/10 07:04:51;;;;;;;19.83;11.00;;;6.30;99.90;;;;;;5090235;28;20058;-57
2021/10/10 07:07:16;;;;;;;20.10;11.55;;;6.40;99.90;;;;;;5106752;28;20032;-60
2021/10/10 07:09:42;;;;;;;16.83;10.60;;;6.50;99.90;;;;;;5109359;28;20534;-58
2021/10/10 07:12:07;;;;;;;28.38;9.82;;;6.50;99.90;;;;;;5106539;28;20030;-59
2021/10/10 07:14:33;;;;;;;17.58;9.85;;;6.60;99.90;;;;;;5102312;28;20120;-59
2021/10/10 07:16:59;;;;;;;18.45;10.10;;;6.70;99.90;;;;;;5106387;28;20028;-60
2021/10/10 07:19:32;;;;;;;18.23;9.38;;;6.80;99.90;;;;;;5110328;28;20397;-58
2021/10/10 07:22:00;;;;;;;18.57;10.77;;;6.80;99.90;;;;;;5105751;28;20031;-55
2021/10/10 07:27:10;;;;;;;16.35;10.05;;;6.80;99.90;;;;;;5102280;28;20092;-53
2021/10/10 07:29:36;;;;;;;20.52;10.50;;;6.90;99.90;;;;;;5101425;28;20031;-60
2021/10/10 07:32:03;;;;;;;18.63;10.63;;;7.00;99.90;;;;;;5103854;28;20527;-58
2021/10/10 07:34:28;;;;;;;20.15;11.13;;;7.00;99.90;;;;;;5110254;28;20027;-58
2021/10/10 07:36:54;;;;;;;17.33;9.98;;;7.10;99.90;;;;;;5110318;28;20023;-59
2021/10/10 07:39:19;;;;;;;25.33;9.07;;;7.20;99.90;;;;;;5109414;28;20031;-59
2021/10/10 07:41:45;;;;;;;14.80;9.20;;;7.30;99.90;;;;;;5098938;28;20035;-58
2021/10/10 07:44:14;;;;;;;20.20;12.07;;;7.30;99.90;;;;;;5098999;28;20040;-59
2021/10/10 07:46:41;;;;;;;18.25;10.20;;;7.30;99.90;;;;;;5108804;28;20036;-59
2021/10/10 07:49:11;;;;;;;15.30;10.63;;;7.30;99.90;;;;;;5099150;28;20038;-59
2021/10/10 07:51:38;;;;;;;20.20;11.63;;;7.30;99.90;;;;;;5101306;28;20485;-59
2021/10/10 07:54:04;;;;;;;21.15;10.85;;;7.40;99.90;;;;;;5105437;28;20031;-59
2021/10/10 07:56:30;;;;;;;19.83;11.63;;;7.50;99.90;;;;;;5105228;28;20497;-59
2021/10/10 07:58:56;;;;;;;21.48;12.13;;;7.70;99.90;;;;;;5106204;28;20032;-59
2021/10/10 08:01:21;;;;;;;21.95;11.85;;;7.80;99.90;;;;;;5104493;28;20036;-59
2021/10/10 08:03:47;;;;;;;19.35;10.52;;;7.80;99.90;;;;;;5086529;28;20051;-60
2021/10/10 08:06:12;;;;;;;22.92;12.68;;;8.00;99.90;;;;;;5109277;28;20082;-59
2021/10/10 08:08:38;;;;;;;21.30;11.38;;;8.10;99.90;;;;;;5109316;28;20031;-59
2021/10/10 08:11:04;;;;;;;22.13;11.90;;;8.20;99.90;;;;;;5103670;28;20032;-59
2021/10/10 08:13:30;;;;;;;19.50;10.63;;;8.30;99.90;;;;;;5103593;28;20042;-59
2021/10/10 08:15:55;;;;;;;20.00;10.23;;;8.30;99.90;;;;;;5110021;28;20015;-56
2021/10/10 08:18:21;;;;;;;25.00;11.68;;;8.40;99.90;;;;;;5108116;28;20104;-59
2021/10/10 08:20:46;;;;;;;19.17;10.88;;;8.50;99.90;;;;;;5098318;28;20032;-59
2021/10/10 08:23:12;;;;;;;18.65;10.82;;;8.70;99.90;;;;;;5106281;28;20027;-59
2021/10/10 08:25:38;;;;;;;16.88;10.70;;;8.80;99.90;;;;;;5106708;28;20032;-59
2021/10/10 08:28:04;;;;;;;17.23;10.43;;;8.90;99.90;;;;;;5105261;28;20548;-58
2021/10/10 08:30:30;;;;;;;17.92;10.02;;;8.90;99.90;;;;;;5109134;28;20062;-59
2021/10/10 08:32:56;;;;;;;15.75;9.75;;;9.00;99.90;;;;;;5099022;28;20020;-59
2021/10/10 08:35:21;;;;;;;18.92;10.50;;;9.10;99.90;;;;;;5103312;28;20028;-58
2021/10/10 08:37:48;;;;;;;20.42;11.00;;;9.10;99.90;;;;;;5108733;28;20027;-58
2021/10/10 08:40:15;;;;;;;19.92;9.77;;;9.30;99.90;;;;;;5109444;28;20023;-60
2021/10/10 08:42:50;;;;;;;18.63;10.65;;;9.40;99.90;;;;;;5106148;28;20374;-59
2021/10/10 08:45:20;;;;;;;18.15;9.70;;;9.50;99.90;;;;;;5107919;28;20393;-57
2021/10/10 08:47:47;;;;;;;20.75;10.00;;;9.50;99.90;;;;;;5108772;28;20023;-59
2021/10/10 08:50:28;;;;;;;14.95;8.75;;;9.70;99.90;;;;;;5109363;28;20036;-59
2021/10/10 08:52:57;;;;;;;18.15;10.45;;;9.80;99.90;;;;;;5100271;28;20043;-59
2021/10/10 08:55:25;;;;;;;15.15;10.10;;;9.90;99.90;;;;;;5099006;28;20031;-59
2021/10/10 08:57:51;;;;;;;16.63;9.82;;;10.00;99.90;;;;;;5104700;28;20020;-59
2021/10/10 09:00:20;;;;;;;15.50;9.38;;;10.20;99.90;;;;;;5108075;28;20393;-58
2021/10/10 09:02:51;;;;;;;21.15;10.43;;;10.80;99.90;;;;;;5106753;28;20023;-60
2021/10/10 09:05:17;;;;;;;17.58;9.75;;;11.40;99.90;;;;;;5087493;28;20088;-60
2021/10/10 09:07:44;;;;;;;19.08;8.98;;;12.00;99.90;;;;;;5108816;28;20024;-60
2021/10/10 09:10:17;;;;;;;19.85;9.30;;;12.60;99.90;;;;;;5112829;28;20132;-60
2021/10/10 09:12:42;;;;;;;16.65;9.93;;;12.90;99.90;;;;;;5106762;28;20035;-60
2021/10/10 09:15:08;;;;;;;14.30;8.98;;;13.10;99.90;;;;;;5109284;28;20097;-60
2021/10/10 09:17:34;;;;;;;18.45;9.38;;;13.60;99.10;;;;;;5111703;28;20028;-61
2021/10/10 09:20:01;;;;;;;17.45;8.88;;;13.90;98.80;;;;;;5105723;28;20483;-62
2021/10/10 09:22:27;;;;;;;13.50;7.68;;;13.80;98.50;;;;;;5104704;28;20152;-59
2021/10/10 09:24:55;;;;;;;14.40;8.90;;;13.90;98.70;;;;;;5113040;28;20059;-61
2021/10/10 09:27:22;;;;;;;13.63;7.72;;;14.30;97.30;;;;;;5112082;28;20020;-60
2021/10/10 09:29:51;;;;;;;13.35;8.88;;;14.70;97.00;;;;;;5100454;28;20027;-61
2021/10/10 09:32:20;;;;;;;16.23;8.55;;;15.00;96.40;;;;;;5106688;28;20103;-61
2021/10/10 09:34:47;;;;;;;18.50;8.73;;;15.50;95.60;;;;;;5104684;28;20047;-59
2021/10/10 09:37:26;;;;;;;13.23;8.50;;;15.70;94.20;;;;;;5106108;28;20023;-61
2021/10/10 09:42:36;;;;;;;13.73;8.50;;;16.30;93.00;;;;;;5109634;28;20736;-60
2021/10/10 09:48:01;;;;;;;11.75;8.10;;;16.40;92.20;;;;;;5099493;28;20039;-60
2021/10/10 09:50:30;;;;;;;16.57;8.27;;;16.60;92.50;;;;;;5110008;28;20027;-60
2021/10/10 09:53:07;;;;;;;20.48;8.73;;;16.50;92.50;;;;;;5106704;28;20153;-59
2021/10/10 09:55:34;;;;;;;14.35;7.43;;;16.20;92.20;;;;;;5106188;28;20051;-61
2021/10/10 09:58:01;;;;;;;17.08;7.90;;;16.50;92.90;;;;;;5106779;28;20088;-53
2021/10/10 10:00:29;;;;;;;13.05;8.25;;;16.30;92.50;;;;;;5107352;27;20042;-59
2021/10/10 10:03:08;;;;;;;12.70;7.63;;;16.00;92.90;;;;;;5111244;28;20095;-59
2021/10/10 10:05:36;;;;;;;16.20;8.50;;;16.00;92.00;;;;;;5101196;28;20028;-60
2021/10/10 10:08:02;;;;;;;17.08;8.02;;;15.80;92.70;;;;;;5108677;28;20023;-59
2021/10/10 10:10:30;;;;;;;12.48;7.53;;;15.90;93.90;;;;;;5111427;28;20099;-59
2021/10/10 10:12:57;;;;;;;16.08;7.90;;;15.80;93.20;;;;;;5110739;28;20031;-60
2021/10/10 10:15:33;;;;;;;16.73;8.88;;;15.60;93.00;;;;;;5106942;28;20023;-59
2021/10/10 10:18:00;;;;;;;12.80;7.53;;;15.70;93.70;;;;;;5092537;28;20416;-54
2021/10/10 10:20:28;;;;;;;13.40;7.20;;;15.60;93.80;;;;;;5094334;28;20419;-60
2021/10/10 10:22:56;;;;;;;15.45;7.78;;;15.50;93.40;;;;;;5106184;28;20031;-59
2021/10/10 10:25:23;;;;;;;16.40;7.65;;;15.10;93.10;;;;;;5107332;28;20106;-60
2021/10/10 10:27:50;;;;;;;15.88;7.72;;;15.20;94.50;;;;;;5097270;28;20027;-60
2021/10/10 10:30:18;;;;;;;12.40;7.80;;;15.20;94.30;;;;;;5104663;28;20019;-58
2021/10/10 10:32:45;;;;;;;14.57;7.85;;;15.30;94.60;;;;;;5102828;28;20027;-59
2021/10/10 10:35:16;;;;;;;13.25;7.40;;;15.40;93.90;;;;;;5107760;28;20027;-59
2021/10/10 10:37:42;;;;;;;17.10;7.97;;;15.40;94.20;;;;;;5110492;28;20034;-58
2021/10/10 10:40:17;;;;;;;12.43;7.55;;;15.30;93.50;;;;;;5108018;28;20126;-60
2021/10/10 10:42:47;;;;;;;12.73;6.88;;;15.40;93.40;;;;;;5112117;28;20031;-58
2021/10/10 10:45:48;;;;;;;12.85;6.95;;;15.50;94.20;;;;;;5104881;28;20134;-59
2021/10/10 10:48:28;;;;;;;9.68;6.38;;;15.20;94.10;;;;;;5108641;28;20030;-59
2021/10/10 10:51:14;;;;;;;12.95;7.10;;;15.30;94.10;;;;;;5109292;28;20028;-58
2021/10/10 10:53:39;;;;;;;11.57;6.97;;;15.40;93.50;;;;;;5107747;28;20035;-59
2021/10/10 10:56:05;;;;;;;10.27;6.85;;;15.20;93.70;;;;;;5110978;28;20015;-60
2021/10/10 10:58:46;;;;;;;14.48;6.65;;;15.30;93.40;;;;;;5110665;28;20097;-59
2021/10/10 11:01:12;;;;;;;12.77;7.00;;;15.30;93.30;;;;;;5111915;28;20151;-60
2021/10/10 11:03:38;;;;;;;15.30;7.97;;;15.20;93.60;;;;;;5112109;28;20138;-59
2021/10/10 11:06:06;;;;;;;10.82;6.43;;;15.30;93.70;;;;;;5108435;28;20031;-54
2021/10/10 11:08:42;;;;;;;10.95;7.35;;;15.20;94.30;;;;;;5108537;28;20050;-61
2021/10/10 11:11:17;;;;;;;10.13;6.80;;;15.10;93.90;;;;;;5106137;28;20374;-60
2021/10/10 11:13:51;;;;;;;14.57;6.82;;;15.30;93.90;;;;;;5111536;28;20027;-60
2021/10/10 11:16:34;;;;;;;12.80;6.63;;;15.30;93.50;;;;;;5109461;28;20109;-60
2021/10/10 11:19:04;;;;;;;11.98;6.35;;;15.50;93.50;;;;;;5107802;28;20023;-59
2021/10/10 11:21:38;;;;;;;16.17;6.70;;;15.50;93.40;;;;;;5104958;28;20031;-59
2021/10/10 11:24:21;;;;;;;12.18;6.35;;;15.60;93.30;;;;;;5107763;28;20374;-59
2021/10/10 11:26:49;;;;;;;14.70;6.57;;;15.50;92.60;;;;;;5108971;28;20037;-59
2021/10/10 11:29:18;;;;;;;15.40;7.20;;;15.50;92.70;;;;;;5106323;28;20032;-59
2021/10/10 11:31:46;;;;;;;12.70;6.80;;;15.60;92.60;;;;;;5108783;28;20040;-60
2021/10/10 11:34:13;;;;;;;11.60;6.55;;;15.50;92.40;;;;;;5108534;28;20027;-59
2021/10/10 11:36:46;;;;;;;10.23;6.15;;;15.60;92.90;;;;;;5110167;28;20020;-59
2021/10/10 11:39:29;;;;;;;15.00;6.32;;;15.50;93.40;;;;;;5110351;28;20031;-60
2021/10/10 11:41:59;;;;;;;12.10;6.47;;;15.40;93.40;;;;;;5110134;28;20028;-60
2021/10/10 11:44:39;;;;;;;10.48;5.93;;;15.40;93.80;;;;;;5110434;28;20039;-58
2021/10/10 11:47:16;;;;;;;10.18;6.13;;;15.60;94.10;;;;;;5103931;28;20084;-59
2021/10/10 11:49:44;;;;;;;15.25;7.20;;;15.60;93.90;;;;;;5107263;28;20473;-59
2021/10/10 11:52:33;;;;;;;11.55;5.68;;;15.70;93.60;;;;;;5108634;28;20024;-60
2021/10/10 11:55:10;;;;;;;8.65;5.85;;;15.80;94.60;;;;;;5108165;28;20055;-59
2021/10/10 11:57:36;;;;;;;14.00;6.22;;;16.00;92.90;;;;;;5109729;28;20106;-60
2021/10/10 12:00:09;;;;;;;11.73;5.95;;;16.00;92.70;;;;;;5101813;28;20513;-60
2021/10/10 12:02:46;;;;;;;13.20;6.60;;;16.20;93.70;;;;;;5110509;28;20050;-59
2021/10/10 12:05:17;;;;;;;9.18;5.97;;;16.10;93.10;;;;;;5110647;28;20027;-60
2021/10/10 12:07:44;;;;;;;14.35;6.65;;;15.90;93.40;;;;;;5109934;28;20449;-60
2021/10/10 12:10:14;;;;;;;17.33;5.68;;;15.90;93.30;;;;;;5109563;28;20035;-60
2021/10/10 12:12:40;;;;;;;12.65;6.00;;;15.80;93.00;;;;;;5109303;28;20038;-60
2021/10/10 12:15:06;;;;;;;9.43;5.70;;;15.70;92.40;;;;;;5104671;28;20032;-60
2021/10/10 12:17:34;;;;;;;9.57;5.97;;;15.70;93.10;;;;;;5110463;28;20035;-60
2021/10/10 12:20:24;;;;;;;8.75;5.45;;;15.60;92.30;;;;;;5105410;28;20128;-56
2021/10/10 12:23:00;;;;;;;12.65;6.25;;;15.60;93.00;;;;;;5106815;28;20499;-58
2021/10/10 12:25:39;;;;;;;12.85;5.32;;;15.40;92.00;;;;;;5109228;28;20031;-59
2021/10/10 12:28:18;;;;;;;19.92;6.57;;;15.30;89.70;;;;;;5105873;28;20388;-59
2021/10/10 12:30:55;;;;;;;11.73;5.82;;;15.30;91.60;;;;;;5107621;28;20030;-60
2021/10/10 12:33:21;;;;;;;14.52;5.95;;;15.20;91.10;;;;;;5104318;28;20027;-54
2021/10/10 12:36:03;;;;;;;11.38;6.38;;;15.10;91.60;;;;;;5104319;28;20099;-59
2021/10/10 12:38:41;;;;;;;14.18;6.20;;;15.10;92.40;;;;;;5100723;28;20081;-60
2021/10/10 12:41:25;;;;;;;16.23;7.68;;;15.10;92.00;;;;;;5100804;28;20081;-58
2021/10/10 12:43:54;;;;;;;10.98;5.50;;;15.00;92.60;;;;;;5108403;28;20118;-59
2021/10/10 12:46:22;;;;;;;8.77;5.70;;;15.00;92.00;;;;;;5107704;28;20035;-60
2021/10/10 12:49:00;;;;;;;13.75;6.18;;;14.90;91.40;;;;;;5107989;28;20047;-60
2021/10/10 12:51:26;;;;;;;11.77;6.30;;;14.80;92.30;;;;;;5109077;28;20519;-60